Time;durP1;ratioP1;P1;durP2;ratioP2;P2;SDS_P1;SDS_P2;PMS_P1;PMS_P2;Temp;Humidity;BMP_temperature;BMP_pressure;BME280_temperature;BME280_humidity;BME280_pressure;Samples;Min_cycle;Max_cycle;Signal;HPM_P1;HPM_P2
2021/12/19 00:00:45;;;;;;;10.77;3.73;;;;;;;6.74;100.00;32005.75;5012337;28;20538;-68
2021/12/19 00:11:26;;;;;;;7.40;3.27;;;;;;;6.87;100.00;24555.00;4953536;28;20158;-68
2021/12/19 00:13:52;;;;;;;6.40;2.60;;;;;;;6.91;100.00;19599.00;4952455;28;20877;-68
2021/12/19 00:16:18;;;;;;;7.77;2.60;;;;;;;6.90;100.00;16285.56;4953647;28;20685;-68
2021/12/19 00:18:46;;;;;;;9.90;3.60;;;;;;;6.90;100.00;15213.19;4955940;28;20385;-68
2021/12/19 00:21:14;;;;;;;8.90;3.87;;;;;;;6.91;100.00;15147.59;4960320;28;20043;-68
2021/12/19 00:23:40;;;;;;;7.67;2.97;;;;;;;6.90;100.00;17403.75;4948607;28;20277;-68
2021/12/19 00:26:06;;;;;;;8.27;3.53;;;;;;;6.88;100.00;19663.66;4960150;28;20507;-68
2021/12/19 00:28:32;;;;;;;8.03;3.33;;;;;;;6.87;100.00;22138.94;4950207;28;20118;-68
2021/12/19 00:30:57;;;;;;;7.57;2.87;;;;;;;6.88;100.00;22329.84;4952934;28;20088;-67
2021/12/19 00:33:22;;;;;;;6.70;3.13;;;;;;;6.92;100.00;19363.34;4954718;28;20637;-68
2021/12/19 00:35:48;;;;;;;9.60;3.37;;;;;;;6.92;100.00;15867.84;4959021;28;20656;-68
2021/12/19 00:38:13;;;;;;;6.97;2.87;;;;;;;6.91;100.00;14559.59;4955910;28;20041;-68
2021/12/19 00:40:39;;;;;;;9.83;3.20;;;;;;;6.93;100.00;13273.00;4955867;28;20435;-68
2021/12/19 00:43:09;;;;;;;7.70;2.40;;;;;;;6.94;100.00;11966.31;4956356;28;20186;-68
2021/12/19 00:45:37;;;;;;;8.70;3.17;;;;;;;6.94;100.00;11049.72;4953307;28;20878;-68
2021/12/19 00:48:05;;;;;;;14.83;3.43;;;;;;;6.95;100.00;10915.75;4974312;28;20073;-68
2021/12/19 00:50:32;;;;;;;14.37;3.80;;;;;;;6.98;100.00;10265.75;5015530;28;20583;-68
2021/12/19 00:52:57;;;;;;;7.77;3.00;;;;;;;7.02;100.00;8125.88;5007445;28;20033;-68
2021/12/19 00:55:25;;;;;;;7.30;2.97;;;;;;;6.99;100.00;7161.66;5012752;28;20037;-67
2021/12/19 00:57:51;;;;;;;6.83;3.07;;;;;;;6.96;100.00;8567.44;5015819;28;20037;-68
2021/12/19 01:00:20;;;;;;;9.60;3.40;;;;;;;6.99;100.00;6886.00;5015921;28;20040;-68
2021/12/19 01:02:50;;;;;;;11.10;2.97;;;;;;;7.03;100.00;3646.28;5008191;28;20049;-68
2021/12/19 01:05:16;;;;;;;8.63;3.03;;;;;;;7.01;100.00;1792.25;5014784;28;20037;-68
2021/12/19 01:07:41;;;;;;;8.33;3.33;;;;;;;6.99;100.00;1521.94;5006816;28;20045;-68
2021/12/19 01:10:08;;;;;;;9.77;3.93;;;;;;;6.96;100.00;1461.13;5014851;28;20041;-71
2021/12/19 01:12:37;;;;;;;9.97;3.47;;;;;;;7.01;100.00;-1402.69;5010748;28;20256;-68
2021/12/19 01:15:07;;;;;;;12.17;3.33;;;;;;;7.04;100.00;-6398.44;5015203;28;20167;-68
2021/12/19 01:17:33;;;;;;;10.37;3.27;;;;;;;7.09;100.00;-10652.75;5013109;28;20569;-68
2021/12/19 01:19:58;;;;;;;8.20;2.30;;;;;;;7.05;100.00;-10506.44;5020384;28;20025;-68
2021/12/19 01:22:24;;;;;;;11.67;4.20;;;;;;;7.03;100.00;-10720.06;5018147;28;20033;-68
2021/12/19 01:24:49;;;;;;;6.83;2.37;;;;;;;7.04;100.00;-10617.03;5021241;28;20501;-67
2021/12/19 01:27:15;;;;;;;8.10;3.13;;;;;;;7.03;100.00;-10647.06;5018674;28;20037;-67
2021/12/19 01:29:40;;;;;;;7.00;2.80;;;;;;;7.04;100.00;-9666.03;5021582;28;20063;-68
2021/12/19 01:32:06;;;;;;;8.17;2.77;;;;;;;7.05;100.00;-9590.63;5020562;28;20033;-67
2021/12/19 01:34:31;;;;;;;9.13;2.97;;;;;;;7.08;100.00;-11849.78;5020833;28;20052;-68
2021/12/19 01:36:57;;;;;;;6.97;3.00;;;;;;;7.06;100.00;-10999.56;5015786;28;20129;-67
2021/12/19 01:39:22;;;;;;;7.67;2.47;;;;;;;7.02;100.00;-11517.19;5021034;28;20108;-68
2021/12/19 01:41:53;;;;;;;7.70;2.50;;;;;;;6.97;100.00;-10208.72;5017461;28;20112;-68
2021/12/19 01:44:20;;;;;;;5.15;2.42;;;;;;;7.05;100.00;-11537.69;5016028;28;20037;-68
2021/12/19 01:46:46;;;;;;;8.77;2.40;;;;;;;7.04;100.00;-13237.06;5017870;28;20076;-68
2021/12/19 01:49:14;;;;;;;7.50;2.70;;;;;;;7.04;100.00;-13448.19;5012107;28;20064;-67
2021/12/19 01:51:40;;;;;;;7.90;2.33;;;;;;;7.13;100.00;-15726.03;5017714;28;20017;-67
2021/12/19 01:54:05;;;;;;;8.33;2.53;;;;;;;7.09;100.00;-17593.34;5020246;28;20121;-67
2021/12/19 01:56:31;;;;;;;7.53;2.67;;;;;;;7.09;100.00;-17723.88;5019978;28;20508;-67
2021/12/19 01:58:57;;;;;;;9.53;2.77;;;;;;;7.07;100.00;-17954.31;5020948;28;20030;-68
2021/12/19 02:01:23;;;;;;;7.90;2.47;;;;;;;6.99;100.00;-16451.56;5021129;28;20440;-67
2021/12/19 02:03:48;;;;;;;6.37;2.30;;;;;;;7.00;100.00;-14457.53;5058213;22;20230;-70
2021/12/19 02:06:13;;;;;;;6.80;2.30;;;;;;;7.02;100.00;-15784.25;5059968;28;20032;-70
2021/12/19 02:08:40;;;;;;;6.13;2.20;;;;;;;7.01;100.00;-16328.97;5058098;28;20115;-70
2021/12/19 02:11:05;;;;;;;6.80;1.97;;;;;;;7.07;100.00;-18519.13;5060169;28;20353;-69
2021/12/19 02:13:31;;;;;;;5.60;1.73;;;;;;;7.07;100.00;-19351.50;5058418;28;20045;-70
2021/12/19 02:15:56;;;;;;;4.93;1.90;;;;;;;7.05;100.00;-19351.13;5058379;28;20048;-70
2021/12/19 02:18:22;;;;;;;5.23;1.97;;;;;;;7.04;100.00;-19350.72;5057352;28;20052;-70
2021/12/19 02:20:55;;;;;;;7.27;2.10;;;;;;;6.97;100.00;-19349.00;5058204;28;20376;-70
2021/12/19 02:23:21;;;;;;;;;;;;;;;7.02;100.00;-19350.31;5056411;28;20120;-70
2021/12/19 02:25:48;;;;;;;5.70;2.20;;;;;;;6.98;100.00;-19349.25;5058021;28;19916;-70
2021/12/19 02:28:14;;;;;;;3.67;1.53;;;;;;;6.98;100.00;-19349.13;5048397;28;20110;-70
2021/12/19 02:30:40;;;;;;;3.87;1.70;;;;;;;6.96;100.00;-19348.75;5058163;28;20693;-70
2021/12/19 02:33:11;;;;;;;4.50;1.90;;;;;;;7.02;100.00;-19350.31;5053764;28;20040;-70
2021/12/19 02:35:37;;;;;;;6.93;1.77;;;;;;;6.99;100.00;-19349.53;5056349;28;20147;-70
2021/12/19 02:38:29;;;;;;;4.67;1.97;;;;;;;6.97;100.00;-19349.00;5055572;28;20075;-70
2021/12/19 02:49:05;;;;;;;5.97;2.43;;;;;;;7.02;100.00;-19350.19;5058036;28;20629;-68
2021/12/19 02:51:34;;;;;;;6.90;2.30;;;;;;;7.01;100.00;-19349.94;5057478;28;20085;-68
2021/12/19 02:54:00;;;;;;;4.77;2.00;;;;;;;7.00;100.00;-19349.78;5057583;28;20058;-68
2021/12/19 02:56:27;;;;;;;6.00;2.43;;;;;;;7.02;100.00;-19350.31;5055032;28;20036;-68
2021/12/19 02:58:53;;;;;;;11.10;2.40;;;;;;;6.99;100.00;-19349.41;5056576;28;20086;-68
2021/12/19 03:01:20;;;;;;;5.63;2.40;;;;;;;6.98;100.00;-19349.25;5059102;28;20024;-68
2021/12/19 03:03:46;;;;;;;6.27;2.57;;;;;;;6.98;100.00;-19349.25;5054423;28;20496;-68
2021/12/19 03:06:12;;;;;;;6.60;2.53;;;;;;;7.01;100.00;-19350.06;5056062;28;20040;-68
2021/12/19 03:08:43;;;;;;;6.37;2.53;;;;;;;6.96;100.00;-19348.75;5053449;28;20257;-68
2021/12/19 03:11:45;;;;;;;8.03;2.70;;;;;;;6.99;100.00;-19349.41;5057143;28;20280;-68
2021/12/19 03:19:21;;;;;;;10.13;3.17;;;;;;;7.05;100.00;-19351.13;5048712;28;20452;-68
2021/12/19 03:21:47;;;;;;;11.47;3.50;;;;;;;7.04;100.00;-19350.84;5057387;28;20043;-68
2021/12/19 03:24:13;;;;;;;7.77;3.47;;;;;;;7.05;100.00;-19351.00;5056151;28;20025;-68
2021/12/19 03:26:38;;;;;;;9.70;3.77;;;;;;;7.03;100.00;-19350.59;5055476;28;20465;-68
2021/12/19 03:29:04;;;;;;;9.77;3.70;;;;;;;6.99;100.00;-19349.53;5056133;28;20579;-68
2021/12/19 03:31:30;;;;;;;9.30;3.70;;;;;;;6.99;100.00;-19349.53;5057845;28;20067;-68
2021/12/19 03:33:56;;;;;;;10.40;3.83;;;;;;;7.04;100.00;-19350.84;5049732;28;20499;-68
2021/12/19 03:36:21;;;;;;;12.80;3.83;;;;;;;7.01;100.00;-19349.94;5057607;28;20032;-68
2021/12/19 03:38:48;;;;;;;8.10;3.33;;;;;;;7.07;100.00;-19351.38;5052360;28;20249;-68
2021/12/19 03:41:21;;;;;;;9.80;3.63;;;;;;;7.06;100.00;-19351.25;5056801;28;20090;-68
2021/12/19 03:43:47;;;;;;;10.13;4.13;;;;;;;7.06;100.00;-19351.25;5055456;28;20373;-69
2021/12/19 03:46:13;;;;;;;9.83;3.53;;;;;;;7.05;100.00;-19351.13;5055252;28;20036;-69
2021/12/19 03:48:38;;;;;;;10.47;3.57;;;;;;;7.07;100.00;-19351.38;5054396;28;20032;-69
2021/12/19 03:51:05;;;;;;;11.90;3.80;;;;;;;7.05;100.00;-19351.13;5052554;28;20600;-69
2021/12/19 03:53:30;;;;;;;8.83;3.63;;;;;;;7.04;100.00;-19350.84;5051035;28;20123;-69
2021/12/19 03:55:56;;;;;;;11.13;4.17;;;;;;;7.02;100.00;-19350.31;5056333;28;20115;-69
2021/12/19 03:58:21;;;;;;;13.67;4.73;;;;;;;6.99;100.00;-19349.53;5056337;28;20028;-69
2021/12/19 04:00:49;;;;;;;12.77;4.30;;;;;;;6.97;100.00;-19348.88;5056969;28;20482;-69
2021/12/19 04:03:19;;;;;;;9.80;3.77;;;;;;;6.97;100.00;-19348.88;5053091;28;20296;-69
2021/12/19 04:05:47;;;;;;;8.37;3.83;;;;;;;6.96;100.00;-19348.75;5056125;28;20472;-69
2021/12/19 04:08:13;;;;;;;8.53;3.67;;;;;;;7.05;100.00;-19351.00;5056102;28;20070;-69
2021/12/19 04:10:39;;;;;;;9.97;3.63;;;;;;;7.01;100.00;-19350.06;5057122;28;20039;-69
2021/12/19 04:13:05;;;;;;;7.20;3.17;;;;;;;6.96;100.00;-19348.59;5056734;28;20036;-69
2021/12/19 04:15:30;;;;;;;12.53;4.00;;;;;;;6.92;100.00;-19347.56;5058000;28;20059;-69
2021/12/19 04:17:56;;;;;;;8.17;3.20;;;;;;;6.92;100.00;-19347.69;5058190;28;20059;-69
2021/12/19 04:20:22;;;;;;;8.67;3.23;;;;;;;6.97;100.00;-19349.00;5056940;28;20352;-69
2021/12/19 04:22:49;;;;;;;7.37;2.63;;;;;;;6.94;100.00;-19348.22;5055824;28;20060;-69
2021/12/19 04:25:15;;;;;;;8.93;3.07;;;;;;;6.93;100.00;-19347.94;5058225;28;20522;-69
2021/12/19 04:27:41;;;;;;;6.10;2.63;;;;;;;6.89;100.00;-19346.88;5051744;28;20344;-69
2021/12/19 04:30:10;;;;;;;9.47;3.00;;;;;;;6.87;100.00;-19346.34;5054295;28;20055;-69
2021/12/19 04:32:41;;;;;;;8.47;3.10;;;;;;;6.87;100.00;-19346.22;5055186;28;20529;-69
2021/12/19 04:35:09;;;;;;;6.73;2.70;;;;;;;6.86;100.00;-19345.97;5058213;28;20040;-69
2021/12/19 05:00:54;;;;;;;5.20;2.30;;;;;;;6.74;100.00;-19343.06;5056543;28;20287;-69
2021/12/19 05:06:36;;;;;;;6.97;2.70;;;;;;;6.66;100.00;-19340.94;5014019;28;20061;-69
2021/12/19 05:14:35;;;;;;;5.63;2.20;;;;;;;6.57;100.00;-16999.44;5010235;28;20168;-69
2021/12/19 05:17:06;;;;;;;6.03;1.80;;;;;;;6.52;100.00;-15402.59;5014127;28;20049;-69
2021/12/19 05:19:44;;;;;;;4.03;1.83;;;;;;;6.49;100.00;-14784.72;5010083;28;20048;-69
2021/12/19 05:22:10;;;;;;;9.60;1.97;;;;;;;6.45;100.00;-14919.56;5000125;28;20025;-69
2021/12/19 05:27:01;;;;;;;5.03;1.70;;;;;;;6.43;100.00;-13578.69;5016118;28;20359;-69
2021/12/19 05:29:26;;;;;;;8.90;1.80;;;;;;;6.41;100.00;-12476.09;5017886;28;20303;-69
2021/12/19 05:31:52;;;;;;;7.67;2.00;;;;;;;6.41;100.00;-11064.31;5012016;28;20034;-69
2021/12/19 05:34:17;;;;;;;7.00;2.20;;;;;;;6.39;100.00;-9976.06;5015251;28;20033;-69
2021/12/19 05:47:35;;;;;;;4.03;2.00;;;;;;;6.57;100.00;-19033.34;5060133;28;20086;-69
2021/12/19 05:50:01;;;;;;;10.47;2.43;;;;;;;6.58;100.00;-19061.06;5059627;28;20233;-69
2021/12/19 05:52:26;;;;;;;8.87;2.80;;;;;;;6.58;100.00;-18787.78;5059395;28;20335;-69
2021/12/19 05:54:52;;;;;;;9.03;2.53;;;;;;;6.56;100.00;-18498.94;5059542;28;20496;-69
2021/12/19 05:57:17;;;;;;;12.03;2.73;;;;;;;6.55;100.00;-17575.88;5059100;28;20100;-69
2021/12/19 05:59:43;;;;;;;9.90;3.03;;;;;;;6.55;100.00;-17019.03;5060021;28;20084;-69
2021/12/19 06:02:08;;;;;;;10.33;2.43;;;;;;;6.55;100.00;-17074.22;5056765;28;20047;-69
2021/12/19 06:04:34;;;;;;;8.37;2.53;;;;;;;6.54;100.00;-16650.06;5059537;28;20028;-69
2021/12/19 06:07:00;;;;;;;7.93;2.07;;;;;;;6.52;100.00;-15738.97;5051413;28;20075;-69
2021/12/19 06:09:25;;;;;;;9.63;2.73;;;;;;;6.56;100.00;-13987.59;5059472;28;20129;-69
2021/12/19 06:11:50;;;;;;;10.77;2.77;;;;;;;6.52;100.00;-12922.19;5059449;28;20028;-69
2021/12/19 06:14:16;;;;;;;13.60;2.43;;;;;;;6.49;100.00;-13293.38;5058536;28;20032;-69
2021/12/19 06:16:41;;;;;;;10.63;2.27;;;;;;;6.50;100.00;-11711.16;5059259;28;20122;-69
2021/12/19 06:19:07;;;;;;;9.20;2.87;;;;;;;6.54;100.00;-11917.72;5060062;28;20039;-70
2021/12/19 06:21:32;;;;;;;11.80;2.47;;;;;;;6.57;100.00;-12161.84;5058634;28;20454;-69
2021/12/19 06:23:58;;;;;;;7.80;2.57;;;;;;;6.58;100.00;-13131.59;5058214;28;20025;-69
2021/12/19 06:26:23;;;;;;;7.87;2.33;;;;;;;6.57;100.00;-15278.19;5058762;28;20025;-69
2021/12/19 06:28:48;;;;;;;7.27;2.93;;;;;;;6.58;100.00;-15122.78;5058828;28;20747;-69
2021/12/19 06:31:16;;;;;;;8.80;2.53;;;;;;;6.60;100.00;-16829.50;5059130;28;20430;-69
2021/12/19 06:33:42;;;;;;;5.70;2.70;;;;;;;6.61;100.00;-17479.47;5057905;28;20028;-69
2021/12/19 06:36:09;;;;;;;8.87;2.50;;;;;;;6.60;100.00;-16601.19;5057331;28;20321;-69
2021/12/19 06:38:34;;;;;;;10.53;2.93;;;;;;;6.57;100.00;-16728.50;5057360;28;20020;-69
2021/12/19 06:41:00;;;;;;;11.43;3.60;;;;;;;6.55;100.00;-14989.16;5059207;28;20031;-69
2021/12/19 06:43:26;;;;;;;9.57;3.80;;;;;;;6.52;100.00;-13499.78;5058214;28;20585;-69
2021/12/19 06:45:52;;;;;;;9.80;2.67;;;;;;;6.55;100.00;-14597.56;5059003;28;20408;-69
2021/12/19 06:48:22;;;;;;;9.07;3.30;;;;;;;6.58;100.00;-16013.63;5057958;28;20273;-69
2021/12/19 06:50:48;;;;;;;11.70;3.47;;;;;;;6.57;100.00;-16969.31;5057644;28;20213;-69
2021/12/19 06:53:13;;;;;;;8.43;2.80;;;;;;;6.57;100.00;-17716.78;5058303;28;20447;-69
2021/12/19 06:55:39;;;;;;;15.37;3.77;;;;;;;6.61;100.00;-19162.13;5057973;28;20052;-69
2021/12/19 06:58:04;;;;;;;8.67;3.30;;;;;;;6.61;100.00;-19339.50;5057063;28;20386;-70
2021/12/19 07:00:29;;;;;;;9.87;3.23;;;;;;;6.61;100.00;-19339.50;5058337;28;20024;-70
2021/12/19 07:02:55;;;;;;;10.50;2.83;;;;;;;6.59;100.00;-19338.97;5057445;28;20477;-70
2021/12/19 07:05:21;;;;;;;11.70;3.30;;;;;;;6.62;100.00;-19072.13;5058324;28;20027;-69
2021/12/19 07:07:46;;;;;;;11.90;3.87;;;;;;;6.60;100.00;-18871.03;5055641;28;20078;-69
2021/12/19 07:10:12;;;;;;;11.40;3.17;;;;;;;6.55;100.00;-18413.44;5058061;28;20029;-69
2021/12/19 07:12:37;;;;;;;8.43;3.07;;;;;;;6.52;100.00;-17061.13;5057657;28;20105;-69
2021/12/19 07:15:04;;;;;;;8.80;3.00;;;;;;;6.57;100.00;-17887.34;5056999;28;20587;-69
2021/12/19 07:17:30;;;;;;;13.00;3.40;;;;;;;6.55;100.00;-18368.44;5056748;28;20067;-69
2021/12/19 07:19:56;;;;;;;8.87;2.90;;;;;;;6.59;100.00;-18364.28;5058221;28;20032;-69
2021/12/19 07:22:22;;;;;;;11.00;3.53;;;;;;;6.59;100.00;-18652.66;5050422;28;20036;-69
2021/12/19 07:24:47;;;;;;;16.33;3.23;;;;;;;6.55;100.00;-18794.53;5057615;28;20269;-69
2021/12/19 07:27:14;;;;;;;12.97;3.27;;;;;;;6.55;100.00;-18373.31;5057230;28;20672;-69
2021/12/19 07:29:39;;;;;;;8.33;2.97;;;;;;;6.55;100.00;-18639.09;5058050;28;20024;-69
2021/12/19 07:32:05;;;;;;;9.20;3.10;;;;;;;6.62;100.00;-19134.94;5053609;28;20432;-69
2021/12/19 07:34:33;;;;;;;8.77;2.80;;;;;;;6.60;100.00;-19339.22;5054367;28;20028;-69
2021/12/19 07:37:00;;;;;;;13.27;3.07;;;;;;;6.60;100.00;-19339.22;5056950;28;20236;-69
2021/12/19 07:41:52;;;;;;;8.57;2.90;;;;;;;6.57;100.00;-19338.44;5057405;28;20027;-69
2021/12/19 07:44:18;;;;;;;10.10;2.63;;;;;;;6.60;100.00;-19339.22;5057559;28;20028;-69
2021/12/19 07:46:44;;;;;;;7.87;2.40;;;;;;;6.61;100.00;-19339.50;5056848;28;20050;-69
2021/12/19 07:49:10;;;;;;;9.43;3.20;;;;;;;6.59;100.00;-19339.09;5056041;28;20112;-69
2021/12/19 07:51:36;;;;;;;17.50;3.23;;;;;;;6.58;100.00;-19294.19;5057174;28;20024;-69
2021/12/19 07:54:02;;;;;;;11.17;2.50;;;;;;;6.57;100.00;-19338.56;5057300;28;20020;-69
2021/12/19 07:56:27;;;;;;;6.83;2.20;;;;;;;6.58;100.00;-19338.69;5057100;28;20039;-69
2021/12/19 07:58:53;;;;;;;12.77;3.13;;;;;;;6.59;100.00;-19338.97;5057480;28;20024;-69
2021/12/19 08:01:18;;;;;;;10.03;2.30;;;;;;;6.61;100.00;-19339.50;5056917;28;20519;-69
2021/12/19 08:03:45;;;;;;;6.83;1.83;;;;;;;6.57;100.00;-19338.56;5056616;28;20052;-70
2021/12/19 08:06:10;;;;;;;8.40;2.50;;;;;;;6.48;100.00;-17453.97;5057116;28;20025;-70
2021/12/19 08:08:36;;;;;;;10.57;2.50;;;;;;;6.44;100.00;-13603.97;5052795;28;20055;-70
2021/12/19 08:13:46;;;;;;;3.97;1.60;;;;;;;6.43;100.00;-10843.53;5054466;28;20047;-70
2021/12/19 08:16:11;;;;;;;7.77;2.07;;;;;;;6.44;100.00;-9612.16;5057482;28;20174;-70
2021/12/19 08:18:37;;;;;;;4.63;1.90;;;;;;;6.44;100.00;-9031.41;5051412;28;20025;-70
2021/12/19 08:21:02;;;;;;;8.73;1.67;;;;;;;6.42;100.00;-7512.34;5057267;28;20020;-70
2021/12/19 08:23:28;;;;;;;7.07;1.60;;;;;;;6.40;100.00;-6651.88;5055694;28;20109;-70
2021/12/19 08:25:53;;;;;;;5.67;1.70;;;;;;;6.41;100.00;-5620.25;5057950;28;20060;-70
2021/12/19 08:28:19;;;;;;;6.13;1.73;;;;;;;6.38;100.00;-4225.66;5054522;28;20020;-70
2021/12/19 08:30:45;;;;;;;6.03;1.93;;;;;;;6.41;100.00;-1268.50;5057830;28;20020;-69
2021/12/19 08:33:10;;;;;;;3.33;1.20;;;;;;;6.49;100.00;-5539.97;5055433;28;20036;-69
2021/12/19 08:35:36;;;;;;;5.93;1.60;;;;;;;6.54;100.00;-8808.47;5056699;28;20028;-69
2021/12/19 08:38:01;;;;;;;8.43;1.60;;;;;;;6.56;100.00;-10420.25;5054393;28;20102;-70
2021/12/19 08:40:28;;;;;;;5.30;1.40;;;;;;;6.61;100.00;-12662.38;5057749;28;20066;-70
2021/12/19 08:42:54;;;;;;;4.87;1.47;;;;;;;6.61;100.00;-12888.44;5056632;28;20047;-70
2021/12/19 08:45:21;;;;;;;5.23;1.57;;;;;;;6.61;100.00;-12104.66;5051703;28;20667;-70
2021/12/19 08:47:47;;;;;;;4.63;1.30;;;;;;;6.57;100.00;-9892.50;5056377;28;20078;-70
2021/12/19 08:50:12;;;;;;;4.80;1.60;;;;;;;6.56;100.00;-6164.47;5057442;28;20139;-70
2021/12/19 08:52:39;;;;;;;11.47;1.87;;;;;;;6.54;100.00;-2419.78;5056050;28;20025;-70
2021/12/19 08:55:06;;;;;;;6.87;1.63;;;;;;;6.47;100.00;302.22;5059084;28;20499;-70
2021/12/19 08:57:31;;;;;;;5.13;1.77;;;;;;;6.44;100.00;4323.63;5057811;28;20032;-70
2021/12/19 08:59:57;;;;;;;6.83;2.07;;;;;;;6.42;100.00;9762.78;5060952;28;20385;-70
2021/12/19 09:02:23;;;;;;;6.13;2.03;;;;;;;6.39;100.00;14129.06;5059365;28;20536;-70
2021/12/19 09:04:49;;;;;;;8.17;1.90;;;;;;;6.39;100.00;18299.16;5061485;28;20028;-70
2021/12/19 09:07:15;;;;;;;8.70;1.80;;;;;;;6.43;100.00;22288.03;5060423;28;20067;-70
2021/12/19 09:09:41;;;;;;;4.27;1.70;;;;;;;6.45;100.00;25295.78;5061382;28;20118;-70
2021/12/19 09:12:07;;;;;;;6.70;1.90;;;;;;;6.50;100.00;24037.72;5059101;28;20067;-70
2021/12/19 09:14:32;;;;;;;5.23;2.00;;;;;;;6.52;100.00;25748.38;5054100;28;20040;-70
2021/12/19 09:16:58;;;;;;;7.00;1.70;;;;;;;6.50;100.00;26969.91;5058677;28;20112;-69
2021/12/19 09:19:25;;;;;;;6.67;1.97;;;;;;;6.54;100.00;26565.19;5061233;28;20044;-69
2021/12/19 09:21:51;;;;;;;7.43;1.70;;;;;;;6.55;100.00;23877.44;5060172;28;20028;-70
2021/12/19 09:24:17;;;;;;;7.07;2.00;;;;;;;6.56;100.00;23931.22;5060950;28;20044;-70
2021/12/19 09:26:42;;;;;;;4.73;1.27;;;;;;;6.60;100.00;23112.91;5058478;28;20028;-70
2021/12/19 09:29:08;;;;;;;4.53;1.53;;;;;;;6.61;100.00;21736.97;5058462;28;20117;-69
2021/12/19 09:31:34;;;;;;;4.10;1.50;;;;;;;6.66;100.00;19170.88;5059751;28;20037;-70
2021/12/19 09:33:59;;;;;;;5.93;1.57;;;;;;;6.68;100.00;15834.84;5059340;28;20036;-70
2021/12/19 09:36:25;;;;;;;6.90;2.17;;;;;;;6.69;100.00;12182.72;5061237;28;20159;-70
2021/12/19 09:38:50;;;;;;;9.97;1.40;;;;;;;6.69;100.00;11818.31;5053047;28;20021;-70
2021/12/19 09:41:27;;;;;;;8.57;2.57;;;;;;;6.72;100.00;12826.59;5059318;28;20449;-70
2021/12/19 09:43:56;;;;;;;6.47;2.10;;;;;;;6.76;100.00;9800.41;5053873;28;20033;-69
2021/12/19 09:46:22;;;;;;;4.67;1.83;;;;;;;6.72;100.00;11548.22;5052521;28;20506;-69
2021/12/19 09:48:49;;;;;;;3.53;1.37;;;;;;;6.71;100.00;15364.44;5059865;28;20278;-69
2021/12/19 09:51:17;;;;;;;6.43;1.70;;;;;;;6.65;100.00;18389.31;5060188;28;20078;-69
2021/12/19 09:53:43;;;;;;;7.70;1.53;;;;;;;6.68;100.00;22130.88;5057070;28;20047;-69
2021/12/19 09:56:09;;;;;;;6.30;1.37;;;;;;;6.67;100.00;23301.16;5055846;28;20025;-70
2021/12/19 09:58:36;;;;;;;5.83;1.67;;;;;;;6.71;100.00;24819.72;5059089;28;20435;-70
2021/12/19 10:01:06;;;;;;;3.63;1.30;;;;;;;6.70;100.00;23879.16;5059669;28;20033;-70
2021/12/19 10:03:32;;;;;;;6.67;1.47;;;;;;;6.70;100.00;24331.63;5057296;28;20622;-70
2021/12/19 10:06:16;;;;;;;3.37;1.60;;;;;;;6.71;100.00;24522.41;5059463;28;20264;-70
2021/12/19 10:08:42;;;;;;;6.43;1.60;;;;;;;6.69;100.00;24188.88;5056355;28;20601;-70
2021/12/19 10:12:12;;;;;;;8.30;2.40;;;;;;;6.69;100.00;24615.50;5055094;28;20047;-70
2021/12/19 10:14:31;;;;;;;9.63;1.83;;;;;;;6.70;100.00;28210.97;5049453;28;20040;-70
2021/12/19 10:17:00;;;;;;;11.38;2.35;;;;;;;6.71;100.00;28659.50;5052309;28;20550;-70
2021/12/19 10:19:42;;;;;;;6.73;1.87;;;;;;;6.74;100.00;25233.09;5051686;28;20370;-70
2021/12/19 10:22:21;;;;;;;;;;;;;;;6.72;100.00;22041.38;5052163;28;20032;-70
2021/12/19 10:24:47;;;;;;;8.53;1.97;;;;;;;6.75;100.00;21661.56;5045658;28;19927;-70
2021/12/19 10:27:53;;;;;;;5.43;1.80;;;;;;;6.76;100.00;22784.44;5058331;28;20116;-70
2021/12/19 10:30:28;;;;;;;5.17;1.70;;;;;;;6.76;100.00;22680.28;5050293;28;20040;-70
2021/12/19 10:32:57;;;;;;;10.77;2.63;;;;;;;6.78;100.00;21261.66;5057342;28;20374;-70
2021/12/19 10:35:33;;;;;;;7.13;1.90;;;;;;;6.79;100.00;19784.75;5058756;28;20055;-70
2021/12/19 10:38:01;;;;;;;9.40;2.00;;;;;;;6.80;100.00;20186.13;5049784;28;20036;-70
2021/12/19 10:40:27;;;;;;;6.77;1.70;;;;;;;6.84;100.00;21294.38;5059399;28;20051;-70
2021/12/19 10:43:00;;;;;;;9.10;1.97;;;;;;;6.84;100.00;19971.94;5056250;28;20392;-70
2021/12/19 10:45:34;;;;;;;6.63;2.00;;;;;;;6.83;100.00;18715.47;5056228;28;20055;-70
2021/12/19 10:48:10;;;;;;;6.27;1.70;;;;;;;6.91;100.00;17761.75;5050517;28;20245;-69
2021/12/19 10:51:07;;;;;;;8.17;1.70;;;;;;;6.98;100.00;10331.69;5051990;28;20105;-70
2021/12/19 10:53:38;;;;;;;7.57;2.03;;;;;;;7.01;100.00;5114.09;4968125;28;20112;-70
2021/12/19 10:56:15;;;;;;;8.43;2.10;;;;;;;7.04;100.00;3156.31;4968808;28;20115;-70
2021/12/19 10:58:44;;;;;;;6.40;1.73;;;;;;;7.09;100.00;-3979.66;4968027;28;20141;-70
2021/12/19 11:01:13;;;;;;;8.70;1.70;;;;;;;7.13;100.00;-5839.56;4969574;28;20084;-70
2021/12/19 11:03:44;;;;;;;3.97;1.30;;;;;;;7.13;100.00;-9933.66;4970597;28;20109;-70
2021/12/19 11:06:14;;;;;;;6.83;1.77;;;;;;;7.17;100.00;-13178.69;4952467;28;20856;-70
2021/12/19 11:08:41;;;;;;;4.80;1.47;;;;;;;7.18;100.00;-15033.66;4964675;28;20365;-70
2021/12/19 11:11:09;;;;;;;9.63;1.77;;;;;;;7.23;100.00;-17312.91;4956659;28;20065;-70
2021/12/19 11:13:35;;;;;;;3.87;1.00;;;;;;;7.25;100.00;-19088.22;4969416;28;20030;-70
2021/12/19 11:16:01;;;;;;;5.70;1.30;;;;;;;7.24;100.00;-19356.00;4969364;28;20033;-70
2021/12/19 11:18:26;;;;;;;10.73;2.33;;;;;;;7.21;100.00;-19355.22;4964514;28;20213;-70
2021/12/19 11:20:52;;;;;;;4.87;1.40;;;;;;;7.20;100.00;-19354.81;4968058;28;20057;-70
2021/12/19 11:23:18;;;;;;;8.23;1.60;;;;;;;7.17;100.00;-19354.03;4966983;28;20137;-70
2021/12/19 11:25:44;;;;;;;3.93;1.70;;;;;;;7.17;100.00;-19354.03;4969821;28;20030;-70
2021/12/19 11:28:11;;;;;;;5.80;1.87;;;;;;;7.16;100.00;-19353.75;4966849;28;20042;-70
2021/12/19 11:30:37;;;;;;;5.60;1.37;;;;;;;7.20;100.00;-19354.81;5029566;28;20044;-70
2021/12/19 11:33:14;;;;;;;8.33;1.90;;;;;;;7.19;100.00;-19354.56;5043247;28;20066;-70
2021/12/19 11:35:46;;;;;;;6.53;1.60;;;;;;;7.22;100.00;-19355.34;5053002;28;20040;-70
2021/12/19 11:38:16;;;;;;;9.52;1.65;;;;;;;7.28;100.00;-19357.06;5049993;28;20421;-70
2021/12/19 11:40:42;;;;;;;9.77;2.07;;;;;;;7.26;100.00;-19356.53;5050973;28;20489;-70
2021/12/19 11:43:09;;;;;;;5.27;1.80;;;;;;;7.25;100.00;-19356.13;5050955;28;20031;-70
2021/12/19 11:45:52;;;;;;;6.73;1.33;;;;;;;7.22;100.00;-19355.47;5051592;28;20561;-70
2021/12/19 11:48:34;;;;;;;15.45;2.03;;;;;;;7.28;100.00;-19356.94;5050881;28;20099;-70
2021/12/19 11:51:02;;;;;;;7.73;1.70;;;;;;;7.32;100.00;-19357.97;5050830;28;20028;-70
2021/12/19 11:53:32;;;;;;;9.77;1.93;;;;;;;7.35;100.00;-19358.91;5051337;28;20119;-70
2021/12/19 11:56:09;;;;;;;5.40;1.43;;;;;;;7.39;100.00;-19359.84;5052073;28;20604;-70
2021/12/19 11:58:42;;;;;;;11.00;2.47;;;;;;;7.42;100.00;-19360.63;5049412;28;20261;-70
2021/12/19 12:01:24;;;;;;;8.77;1.70;;;;;;;7.42;100.00;-19360.50;5049805;28;20039;-70
2021/12/19 12:04:14;;;;;;;9.50;2.00;;;;;;;7.43;100.00;-19360.88;5047480;28;20506;-70
2021/12/19 12:06:42;;;;;;;5.23;1.30;;;;;;;7.44;100.00;-19361.03;4988851;28;20052;-70
2021/12/19 12:09:13;;;;;;;5.67;1.20;;;;;;;7.46;100.00;-19361.56;4984079;28;20041;-70
2021/12/19 12:12:00;;;;;;;10.53;2.03;;;;;;;7.52;100.00;-19363.28;4988024;28;20047;-70
2021/12/19 12:14:29;;;;;;;7.03;1.40;;;;;;;7.49;100.00;-19362.47;4983521;28;20037;-70
2021/12/19 12:17:11;;;;;;;5.33;1.20;;;;;;;7.51;100.00;-19363.00;4987425;28;20176;-70
2021/12/19 12:19:42;;;;;;;7.40;1.50;;;;;;;7.51;100.00;-19363.00;4985727;28;20052;-70
2021/12/19 12:25:31;;;;;;;4.47;1.40;;;;;;;7.56;100.00;-19364.19;4987785;28;20289;-70
2021/12/19 12:28:04;;;;;;;10.17;1.40;;;;;;;7.58;100.00;-19364.84;4983039;28;20065;-70
2021/12/19 12:30:37;;;;;;;4.03;1.30;;;;;;;7.57;100.00;-19364.47;4991322;28;20104;-70
2021/12/19 12:33:05;;;;;;;5.57;1.57;;;;;;;7.53;100.00;-19363.53;4991828;28;20064;-70
2021/12/19 12:35:34;;;;;;;5.00;1.20;;;;;;;7.53;100.00;-19363.53;4990362;28;20296;-70
2021/12/19 12:38:00;;;;;;;9.93;1.30;;;;;;;7.62;100.00;-19365.91;4989885;28;20042;-70
2021/12/19 12:43:16;;;;;;;8.87;1.50;;;;;;;7.62;100.00;-19365.91;5007653;28;20119;-70
2021/12/19 12:45:49;;;;;;;12.73;2.40;;;;;;;7.68;100.00;-19367.22;5055670;28;20078;-70
2021/12/19 12:48:32;;;;;;;11.33;1.77;;;;;;;7.72;100.00;-19368.28;5054287;28;20055;-70